Terminal Aerodrome Forecast
Issued by NWS

Home | Current Version | Previous Version | Text Only | Print | Product List | Glossary On
Versions: 1 2 3 4 5 6 7 8 9 10 11 12 13 14 15 16 17 18
000
FTUS43 KDTX 241120
TAFPTK
TAF
KPTK 241120Z 2412/2512 11010KT 3SM -DZ BR BKN005 OVC012
     FM241700 16013KT P6SM BKN012 BKN025
     FM241900 17013G20KT P6SM BKN040
     FM250100 18012G18KT 5SM -SHRA SCT008 OVC018 PROB30 2503/2506
      3SM TSRA OVC008CB
     FM250600 24012G20KT P6SM OVC010=

USA.gov is the U.S. government's official web portal to all federal, state and local government web resources and services.